Time;durP1;ratioP1;P1;durP2;ratioP2;P2;SDS_P1;SDS_P2;PMS_P1;PMS_P2;Temp;Humidity;BMP_temperature;BMP_pressure;BME280_temperature;BME280_humidity;BME280_pressure;Samples;Min_cycle;Max_cycle;Signal;HPM_P1;HPM_P2
2023/10/04 00:00:15;;;;;;;4.25;1.02;;;;;;;;;;5055731;28;20562;-71
2023/10/04 00:02:46;;;;;;;3.13;1.17;;;;;;;;;;5054380;28;20460;-72
2023/10/04 00:05:19;;;;;;;2.70;1.13;;;;;;;;;;5054390;28;20028;-72
2023/10/04 00:07:46;;;;;;;1.13;0.82;;;;;;;;;;5055640;28;20385;-71
2023/10/04 00:10:13;;;;;;;3.35;1.20;;;;;;;;;;5053880;28;20469;-72
2023/10/04 00:12:38;;;;;;;4.00;1.00;;;;;;;;;;5055142;28;20040;-72
2023/10/04 00:15:14;;;;;;;2.88;1.05;;;;;;;;;;5055098;28;20028;-72
2023/10/04 00:17:43;;;;;;;4.38;1.13;;;;;;;;;;5055388;28;20079;-71
2023/10/04 00:20:12;;;;;;;3.85;1.10;;;;;;;;;;5054921;28;20031;-71
2023/10/04 00:22:39;;;;;;;2.28;0.85;;;;;;;;;;5055014;28;20025;-71
2023/10/04 00:25:11;;;;;;;4.55;1.02;;;;;;;;;;5054933;28;20025;-72
2023/10/04 00:27:40;;;;;;;2.83;0.93;;;;;;;;;;5055235;28;20032;-71
2023/10/04 00:30:07;;;;;;;3.25;1.10;;;;;;;;;;5055054;28;20033;-71
2023/10/04 00:32:32;;;;;;;2.88;1.30;;;;;;;;;;5053452;28;20056;-71
2023/10/04 00:34:58;;;;;;;3.10;1.20;;;;;;;;;;5054671;28;20055;-72
2023/10/04 00:37:24;;;;;;;3.03;1.10;;;;;;;;;;5053484;28;20105;-71
2023/10/04 00:39:49;;;;;;;3.22;1.00;;;;;;;;;;5054635;28;20048;-72
2023/10/04 00:42:15;;;;;;;3.33;0.95;;;;;;;;;;5054587;28;20021;-71
2023/10/04 00:44:41;;;;;;;3.30;1.05;;;;;;;;;;5053375;28;20044;-72
2023/10/04 00:47:06;;;;;;;4.47;1.10;;;;;;;;;;5053349;28;20028;-71
2023/10/04 00:49:33;;;;;;;2.55;1.10;;;;;;;;;;5054408;28;20032;-72
2023/10/04 00:52:02;;;;;;;3.03;1.10;;;;;;;;;;5053294;28;20029;-71
2023/10/04 00:54:29;;;;;;;3.28;1.15;;;;;;;;;;5054352;28;20051;-72
2023/10/04 00:56:55;;;;;;;1.83;0.95;;;;;;;;;;5054305;28;20025;-72
2023/10/04 00:59:20;;;;;;;2.65;0.95;;;;;;;;;;5055129;28;20028;-72
2023/10/04 01:01:46;;;;;;;3.33;1.17;;;;;;;;;;5054232;28;20025;-72
2023/10/04 01:04:11;;;;;;;3.35;1.00;;;;;;;;;;5054506;28;20023;-72
2023/10/04 01:06:37;;;;;;;3.10;1.02;;;;;;;;;;5052941;28;20055;-71
2023/10/04 01:09:05;;;;;;;3.58;1.10;;;;;;;;;;5052910;28;20016;-71
2023/10/04 01:11:35;;;;;;;2.50;0.75;;;;;;;;;;5054133;28;20430;-73
2023/10/04 01:14:17;;;;;;;6.57;1.30;;;;;;;;;;5054032;28;20071;-71
2023/10/04 01:16:43;;;;;;;1.45;1.00;;;;;;;;;;5053960;28;20017;-71
2023/10/04 01:19:14;;;;;;;9.63;1.35;;;;;;;;;;5053998;28;20453;-71
2023/10/04 01:21:39;;;;;;;3.35;1.30;;;;;;;;;;5054238;28;20111;-71
2023/10/04 01:24:08;;;;;;;3.08;0.98;;;;;;;;;;5053880;28;20049;-71
2023/10/04 01:26:36;;;;;;;2.70;1.00;;;;;;;;;;5053827;28;20507;-72
2023/10/04 01:29:07;;;;;;;2.58;0.90;;;;;;;;;;5054259;28;20025;-71
2023/10/04 01:31:33;;;;;;;3.75;1.23;;;;;;;;;;5053761;28;20403;-71
2023/10/04 01:33:59;;;;;;;3.28;1.13;;;;;;;;;;5052338;28;20028;-72
2023/10/04 01:36:24;;;;;;;4.18;1.20;;;;;;;;;;5053602;28;20025;-71
2023/10/04 01:38:50;;;;;;;3.08;1.10;;;;;;;;;;5052267;28;20056;-73
2023/10/04 01:41:15;;;;;;;5.57;1.10;;;;;;;;;;5052191;28;20024;-72
2023/10/04 01:43:41;;;;;;;2.60;1.10;;;;;;;;;;5053499;28;20380;-72
2023/10/04 01:46:06;;;;;;;3.45;1.13;;;;;;;;;;5053016;28;20294;-71
2023/10/04 01:48:35;;;;;;;2.97;1.15;;;;;;;;;;5053404;28;20424;-71
2023/10/04 01:51:03;;;;;;;5.22;1.13;;;;;;;;;;5053467;28;20506;-72
2023/10/04 01:53:29;;;;;;;4.30;1.17;;;;;;;;;;5053258;28;20040;-71
2023/10/04 01:55:55;;;;;;;2.53;1.20;;;;;;;;;;5053480;28;20056;-72
2023/10/04 01:58:24;;;;;;;2.28;1.27;;;;;;;;;;5053822;28;20023;-72
2023/10/04 02:00:50;;;;;;;3.03;1.40;;;;;;;;;;5053252;28;20021;-72
2023/10/04 02:03:16;;;;;;;4.22;1.30;;;;;;;;;;5053441;28;20533;-71
2023/10/04 02:05:41;;;;;;;3.85;1.27;;;;;;;;;;5053151;28;20029;-72
2023/10/04 02:08:09;;;;;;;3.50;1.00;;;;;;;;;;5053226;28;20082;-72
2023/10/04 02:10:36;;;;;;;5.13;1.20;;;;;;;;;;5052979;28;20017;-72
2023/10/04 02:13:02;;;;;;;5.07;1.40;;;;;;;;;;5052984;28;20024;-72
2023/10/04 02:15:27;;;;;;;4.93;1.20;;;;;;;;;;5053079;28;20103;-72
2023/10/04 02:17:53;;;;;;;4.20;1.23;;;;;;;;;;5051731;28;20056;-72
2023/10/04 02:20:23;;;;;;;3.92;1.45;;;;;;;;;;5051607;28;20021;-72
2023/10/04 02:22:54;;;;;;;5.20;1.33;;;;;;;;;;5052957;28;20028;-72
2023/10/04 02:25:20;;;;;;;2.70;1.27;;;;;;;;;;5053214;28;20155;-72
2023/10/04 02:27:46;;;;;;;3.00;1.23;;;;;;;;;;5052296;28;20063;-72
2023/10/04 02:30:26;;;;;;;4.15;1.33;;;;;;;;;;5051545;28;20047;-72
2023/10/04 02:32:52;;;;;;;2.95;1.20;;;;;;;;;;5051483;28;20045;-72
2023/10/04 02:35:34;;;;;;;3.30;1.25;;;;;;;;;;5052804;28;20032;-70
2023/10/04 02:38:00;;;;;;;4.05;1.30;;;;;;;;;;5053147;28;20391;-72
2023/10/04 02:40:32;;;;;;;2.67;1.25;;;;;;;;;;5051484;28;20024;-72
2023/10/04 02:42:58;;;;;;;7.47;1.30;;;;;;;;;;5052997;28;20040;-72
2023/10/04 02:45:24;;;;;;;6.05;1.38;;;;;;;;;;5052688;28;20100;-71
2023/10/04 02:47:52;;;;;;;7.47;1.30;;;;;;;;;;5052695;28;20029;-71
2023/10/04 02:50:18;;;;;;;3.20;1.30;;;;;;;;;;5052511;28;20039;-72
2023/10/04 02:52:44;;;;;;;4.25;1.50;;;;;;;;;;5052661;28;20036;-71
2023/10/04 02:55:17;;;;;;;2.53;1.20;;;;;;;;;;5052454;28;20025;-71
2023/10/04 02:57:43;;;;;;;3.53;1.20;;;;;;;;;;5052994;28;20033;-71
2023/10/04 03:00:16;;;;;;;2.92;1.30;;;;;;;;;;5052808;28;20029;-71
2023/10/04 03:02:43;;;;;;;2.60;1.20;;;;;;;;;;5052591;28;20091;-71
2023/10/04 03:05:09;;;;;;;4.75;1.40;;;;;;;;;;5052536;28;20070;-71
2023/10/04 03:07:34;;;;;;;2.78;1.10;;;;;;;;;;5052757;28;20025;-71
2023/10/04 03:09:59;;;;;;;4.90;1.58;;;;;;;;;;5051222;28;20021;-71
2023/10/04 03:12:25;;;;;;;4.40;1.20;;;;;;;;;;5052454;28;20487;-71
2023/10/04 03:14:50;;;;;;;2.67;1.15;;;;;;;;;;5053284;28;20112;-71
2023/10/04 03:17:16;;;;;;;3.45;1.23;;;;;;;;;;5052669;28;20021;-71
2023/10/04 03:19:42;;;;;;;1.98;1.10;;;;;;;;;;5052820;28;20029;-71
2023/10/04 03:22:10;;;;;;;4.18;1.40;;;;;;;;;;5052423;28;20075;-72
2023/10/04 03:24:36;;;;;;;2.50;1.30;;;;;;;;;;5052679;28;20104;-71
2023/10/04 03:27:05;;;;;;;4.28;1.35;;;;;;;;;;5053095;28;20025;-72
2023/10/04 03:29:30;;;;;;;4.13;1.50;;;;;;;;;;5053207;28;20024;-71
2023/10/04 03:31:55;;;;;;;5.30;1.50;;;;;;;;;;5052802;28;20025;-71
2023/10/04 03:34:22;;;;;;;3.17;1.43;;;;;;;;;;5052526;28;20032;-71
2023/10/04 03:36:48;;;;;;;4.60;1.40;;;;;;;;;;5052669;28;20632;-72
2023/10/04 03:39:16;;;;;;;4.28;1.20;;;;;;;;;;5052667;28;20025;-71
2023/10/04 03:41:42;;;;;;;2.75;1.30;;;;;;;;;;5054494;28;20475;-71
2023/10/04 03:44:07;;;;;;;3.25;1.40;;;;;;;;;;5054501;28;20021;-71
2023/10/04 03:46:33;;;;;;;2.10;1.30;;;;;;;;;;5054486;28;20021;-71
2023/10/04 03:48:58;;;;;;;2.67;1.13;;;;;;;;;;5055664;28;20095;-71
2023/10/04 03:51:23;;;;;;;2.80;1.35;;;;;;;;;;5055539;28;20400;-71
2023/10/04 03:53:53;;;;;;;2.80;1.33;;;;;;;;;;5055785;28;20116;-71
2023/10/04 03:56:20;;;;;;;4.85;1.40;;;;;;;;;;5055671;28;20027;-71
2023/10/04 03:58:45;;;;;;;2.97;1.15;;;;;;;;;;5054066;28;20029;-71
2023/10/04 04:01:14;;;;;;;4.25;1.30;;;;;;;;;;5055600;28;20071;-71
2023/10/04 04:03:39;;;;;;;2.60;1.20;;;;;;;;;;5054157;28;20028;-71
2023/10/04 04:06:05;;;;;;;4.07;1.35;;;;;;;;;;5055565;28;20029;-71
2023/10/04 04:08:30;;;;;;;2.58;1.10;;;;;;;;;;5055583;28;20032;-70
2023/10/04 04:10:55;;;;;;;3.05;1.38;;;;;;;;;;5055216;28;20029;-71
2023/10/04 04:13:21;;;;;;;2.25;1.15;;;;;;;;;;5053924;28;20107;-71
2023/10/04 04:15:47;;;;;;;3.47;1.40;;;;;;;;;;5055195;28;20025;-71
2023/10/04 04:18:16;;;;;;;2.22;1.30;;;;;;;;;;5053895;28;20020;-71
2023/10/04 04:20:41;;;;;;;3.10;1.42;;;;;;;;;;5053815;28;20054;-71
2023/10/04 04:23:15;;;;;;;1.85;1.40;;;;;;;;;;5055364;28;20021;-71
2023/10/04 04:25:40;;;;;;;6.05;1.40;;;;;;;;;;5055056;28;20102;-73
2023/10/04 04:28:07;;;;;;;2.75;1.27;;;;;;;;;;5054982;28;20483;-71
2023/10/04 04:30:35;;;;;;;3.30;1.30;;;;;;;;;;5054913;28;20036;-71
2023/10/04 04:33:04;;;;;;;4.03;1.23;;;;;;;;;;5054680;28;20067;-71
2023/10/04 04:38:17;;;;;;;2.53;1.40;;;;;;;;;;5055182;28;20064;-69
2023/10/04 04:40:49;;;;;;;6.35;1.73;;;;;;;;;;5054684;28;20078;-71
2023/10/04 04:45:56;;;;;;;2.88;1.27;;;;;;;;;;5055311;28;20029;-71
2023/10/04 04:48:24;;;;;;;4.00;1.40;;;;;;;;;;5054959;28;20039;-71
2023/10/04 04:50:55;;;;;;;3.25;1.30;;;;;;;;;;5052421;28;20373;-71
2023/10/04 04:53:27;;;;;;;2.42;1.10;;;;;;;;;;5054843;28;20041;-73
2023/10/04 04:55:53;;;;;;;3.85;1.30;;;;;;;;;;5053281;28;20025;-71
2023/10/04 04:58:19;;;;;;;2.95;1.42;;;;;;;;;;5054707;28;20033;-71
2023/10/04 05:00:44;;;;;;;2.45;1.27;;;;;;;;;;5052967;28;20123;-71
2023/10/04 05:03:11;;;;;;;5.55;1.42;;;;;;;;;;5054372;28;20029;-71
2023/10/04 05:05:36;;;;;;;3.70;1.33;;;;;;;;;;5054305;28;20025;-71
2023/10/04 05:08:02;;;;;;;3.03;1.33;;;;;;;;;;5054459;28;20052;-71
2023/10/04 05:10:34;;;;;;;1.63;1.20;;;;;;;;;;5054181;28;20074;-71
2023/10/04 05:13:00;;;;;;;5.32;1.38;;;;;;;;;;5054341;28;20534;-71
2023/10/04 05:15:32;;;;;;;2.13;1.27;;;;;;;;;;5052765;28;20499;-70
2023/10/04 05:18:04;;;;;;;2.33;1.20;;;;;;;;;;5054168;28;20105;-71
2023/10/04 05:20:31;;;;;;;3.75;1.30;;;;;;;;;;5054190;28;20029;-71
2023/10/04 05:23:00;;;;;;;2.58;1.20;;;;;;;;;;5052691;28;20028;-71
2023/10/04 05:25:27;;;;;;;2.67;1.23;;;;;;;;;;5054857;28;20039;-72
2023/10/04 05:27:53;;;;;;;2.55;1.13;;;;;;;;;;5052592;28;20024;-72
2023/10/04 05:30:18;;;;;;;3.35;1.30;;;;;;;;;;5054002;28;20055;-72
2023/10/04 05:32:46;;;;;;;3.33;1.50;;;;;;;;;;5054420;28;20361;-71
2023/10/04 05:35:14;;;;;;;3.15;1.42;;;;;;;;;;5054018;28;20025;-73
2023/10/04 05:37:44;;;;;;;3.88;1.55;;;;;;;;;;5053937;28;20017;-72
2023/10/04 05:40:16;;;;;;;5.80;1.60;;;;;;;;;;5053495;28;20082;-72
2023/10/04 05:42:43;;;;;;;4.10;1.70;;;;;;;;;;5052338;28;20443;-72
2023/10/04 05:45:12;;;;;;;5.32;1.35;;;;;;;;;;5053543;28;20028;-72
2023/10/04 05:47:38;;;;;;;3.45;1.00;;;;;;;;;;5053828;28;20047;-72
2023/10/04 05:50:05;;;;;;;4.78;1.42;;;;;;;;;;5053252;28;20083;-72
2023/10/04 05:52:34;;;;;;;4.10;1.40;;;;;;;;;;5053316;28;20025;-72
2023/10/04 05:55:00;;;;;;;3.30;1.58;;;;;;;;;;5053564;28;20052;-72
2023/10/04 05:57:26;;;;;;;3.97;1.42;;;;;;;;;;5051937;28;20020;-73
2023/10/04 05:59:51;;;;;;;3.88;1.75;;;;;;;;;;5053176;28;20048;-72
2023/10/04 06:02:16;;;;;;;2.88;1.50;;;;;;;;;;5051874;28;20119;-72
2023/10/04 06:04:42;;;;;;;5.00;1.47;;;;;;;;;;5053505;28;20021;-72
2023/10/04 06:07:08;;;;;;;2.00;1.35;;;;;;;;;;5053338;28;20257;-72
2023/10/04 06:09:33;;;;;;;5.10;1.73;;;;;;;;;;5053131;28;20017;-71
2023/10/04 06:12:00;;;;;;;3.30;1.40;;;;;;;;;;5051797;28;20520;-71
2023/10/04 06:14:26;;;;;;;7.25;1.45;;;;;;;;;;5052979;28;20506;-71
2023/10/04 06:16:52;;;;;;;2.80;1.35;;;;;;;;;;5052079;28;20025;-71
2023/10/04 06:19:19;;;;;;;3.35;1.48;;;;;;;;;;5053017;28;20080;-71
2023/10/04 06:21:49;;;;;;;9.93;1.58;;;;;;;;;;5052929;28;20029;-73
2023/10/04 06:24:14;;;;;;;4.78;1.75;;;;;;;;;;5053538;28;20040;-72
2023/10/04 06:26:41;;;;;;;4.05;1.60;;;;;;;;;;5051820;28;20480;-71
2023/10/04 06:29:07;;;;;;;3.72;1.52;;;;;;;;;;5053201;28;20051;-71
2023/10/04 06:31:35;;;;;;;2.97;1.63;;;;;;;;;;5051566;28;20035;-71
2023/10/04 06:34:02;;;;;;;7.10;1.67;;;;;;;;;;5052756;28;20071;-72
2023/10/04 06:36:29;;;;;;;3.17;1.48;;;;;;;;;;5051338;28;20060;-72
2023/10/04 06:38:54;;;;;;;5.85;1.70;;;;;;;;;;5051469;28;20029;-71
2023/10/04 06:41:24;;;;;;;5.35;1.30;;;;;;;;;;5052606;28;20392;-72
2023/10/04 06:43:49;;;;;;;8.57;1.73;;;;;;;;;;5052700;28;20025;-72
2023/10/04 06:46:15;;;;;;;3.88;1.80;;;;;;;;;;5052980;28;20391;-72
2023/10/04 06:48:41;;;;;;;5.07;1.60;;;;;;;;;;5053104;28;20053;-72
2023/10/04 06:51:06;;;;;;;3.72;1.58;;;;;;;;;;5052707;28;20040;-72
2023/10/04 06:53:31;;;;;;;4.30;1.40;;;;;;;;;;5052521;28;20040;-72
2023/10/04 06:55:57;;;;;;;4.17;1.67;;;;;;;;;;5053271;28;20025;-72
2023/10/04 06:58:22;;;;;;;4.57;1.42;;;;;;;;;;5051290;28;20259;-71
2023/10/04 07:00:47;;;;;;;6.60;1.75;;;;;;;;;;5052450;28;20017;-72
2023/10/04 07:03:14;;;;;;;3.70;1.60;;;;;;;;;;5052894;28;20395;-72
2023/10/04 07:05:40;;;;;;;5.85;1.50;;;;;;;;;;5052534;28;20108;-72
2023/10/04 07:08:13;;;;;;;5.43;1.60;;;;;;;;;;5052556;28;20025;-73
2023/10/04 07:10:38;;;;;;;2.75;1.80;;;;;;;;;;5052941;28;20048;-72
2023/10/04 07:13:05;;;;;;;4.45;1.67;;;;;;;;;;5052610;28;20499;-72
2023/10/04 07:15:35;;;;;;;4.70;2.05;;;;;;;;;;5055378;28;20468;-73
2023/10/04 07:18:00;;;;;;;5.65;1.83;;;;;;;;;;5054901;28;20032;-72
2023/10/04 07:20:26;;;;;;;4.18;1.83;;;;;;;;;;5056422;28;20025;-71
2023/10/04 07:22:59;;;;;;;5.03;2.10;;;;;;;;;;5056160;28;20476;-72
2023/10/04 07:25:29;;;;;;;4.75;1.70;;;;;;;;;;5056366;28;20021;-72
2023/10/04 07:28:02;;;;;;;2.90;1.38;;;;;;;;;;5056194;28;20017;-72
2023/10/04 07:30:33;;;;;;;7.63;2.10;;;;;;;;;;5054682;28;20098;-72
2023/10/04 07:32:59;;;;;;;6.57;1.90;;;;;;;;;;5054586;28;20028;-72
2023/10/04 07:35:25;;;;;;;7.68;1.70;;;;;;;;;;5056165;28;20028;-72
2023/10/04 07:37:51;;;;;;;5.43;2.05;;;;;;;;;;5055749;28;20048;-72
2023/10/04 07:40:17;;;;;;;8.77;2.53;;;;;;;;;;5055741;28;20043;-72
2023/10/04 07:42:48;;;;;;;5.28;2.30;;;;;;;;;;5054379;28;20559;-71
2023/10/04 07:45:14;;;;;;;6.03;2.20;;;;;;;;;;5056035;28;20028;-71
2023/10/04 07:47:45;;;;;;;7.13;2.10;;;;;;;;;;5056178;28;20100;-71
2023/10/04 07:50:14;;;;;;;3.22;1.98;;;;;;;;;;5054016;28;20025;-71
2023/10/04 07:52:41;;;;;;;5.38;2.25;;;;;;;;;;5055591;28;20029;-72
2023/10/04 07:55:14;;;;;;;10.50;2.20;;;;;;;;;;5054166;28;20031;-71
2023/10/04 07:57:42;;;;;;;6.75;2.30;;;;;;;;;;5054247;28;20094;-71
2023/10/04 08:00:14;;;;;;;10.23;2.20;;;;;;;;;;5055314;28;20029;-71
2023/10/04 08:02:49;;;;;;;6.22;2.08;;;;;;;;;;5054102;28;20395;-71
2023/10/04 08:05:23;;;;;;;3.63;1.55;;;;;;;;;;5055349;28;20025;-71
2023/10/04 08:07:49;;;;;;;;;;;;;;;;;;5055827;28;20028;-71
2023/10/04 08:10:23;;;;;;;6.45;2.00;;;;;;;;;;5055133;28;19959;-71
2023/10/04 08:12:51;;;;;;;6.70;1.90;;;;;;;;;;5055793;28;20025;-71
2023/10/04 08:15:19;;;;;;;6.05;1.83;;;;;;;;;;5053831;28;20029;-71
2023/10/04 08:17:48;;;;;;;4.65;1.50;;;;;;;;;;5054951;28;20028;-71
2023/10/04 08:20:16;;;;;;;3.50;1.70;;;;;;;;;;5054997;28;20025;-71
2023/10/04 08:22:42;;;;;;;3.47;1.75;;;;;;;;;;5053726;28;20029;-71
2023/10/04 08:25:10;;;;;;;6.78;1.80;;;;;;;;;;5054856;28;20400;-71
2023/10/04 08:27:36;;;;;;;4.38;1.45;;;;;;;;;;5053933;28;20106;-72
2023/10/04 08:30:06;;;;;;;4.13;1.63;;;;;;;;;;5053587;28;20079;-71
2023/10/04 08:32:31;;;;;;;3.97;1.70;;;;;;;;;;5054830;28;20025;-71
2023/10/04 08:34:58;;;;;;;2.97;1.50;;;;;;;;;;5055271;28;20028;-71
2023/10/04 08:37:24;;;;;;;7.30;1.80;;;;;;;;;;5055044;28;20387;-72
2023/10/04 08:39:49;;;;;;;4.55;1.60;;;;;;;;;;5054800;28;20028;-71
2023/10/04 08:42:14;;;;;;;2.90;1.40;;;;;;;;;;5054751;28;20037;-71
2023/10/04 08:44:40;;;;;;;5.13;1.83;;;;;;;;;;5054797;28;20047;-71
2023/10/04 08:47:08;;;;;;;3.90;1.58;;;;;;;;;;5054589;28;20027;-71
2023/10/04 08:49:43;;;;;;;4.35;1.52;;;;;;;;;;5054609;28;20035;-71
2023/10/04 08:52:18;;;;;;;2.38;1.52;;;;;;;;;;5054659;28;20048;-71
2023/10/04 08:54:50;;;;;;;6.10;1.55;;;;;;;;;;5053191;28;20025;-72
2023/10/04 08:57:20;;;;;;;6.47;1.60;;;;;;;;;;5053097;28;20426;-72
2023/10/04 08:59:46;;;;;;;4.53;1.40;;;;;;;;;;5054176;28;20052;-71
2023/10/04 09:02:14;;;;;;;21.88;1.70;;;;;;;;;;5054160;28;20052;-72
2023/10/04 09:04:39;;;;;;;4.28;1.60;;;;;;;;;;5054252;28;20040;-72
2023/10/04 09:07:08;;;;;;;4.38;1.80;;;;;;;;;;5054460;28;20489;-72
2023/10/04 09:09:40;;;;;;;3.05;1.48;;;;;;;;;;5054516;28;20103;-71
2023/10/04 09:12:08;;;;;;;3.25;1.38;;;;;;;;;;5054490;28;20395;-72
2023/10/04 09:14:36;;;;;;;4.72;1.67;;;;;;;;;;5054036;28;20028;-71
2023/10/04 09:17:06;;;;;;;4.30;1.58;;;;;;;;;;5053971;28;20032;-71
2023/10/04 09:19:32;;;;;;;3.63;1.50;;;;;;;;;;5053960;28;20103;-71
2023/10/04 09:22:05;;;;;;;5.00;1.63;;;;;;;;;;5053947;28;20064;-71
2023/10/04 09:24:30;;;;;;;3.95;1.40;;;;;;;;;;5053815;28;20021;-71
2023/10/04 09:26:56;;;;;;;4.97;1.50;;;;;;;;;;5054037;28;20043;-71
2023/10/04 09:29:38;;;;;;;4.38;1.60;;;;;;;;;;5053721;28;20480;-71
2023/10/04 09:32:05;;;;;;;6.78;1.40;;;;;;;;;;5054010;28;20108;-71
2023/10/04 09:34:31;;;;;;;2.03;1.30;;;;;;;;;;5053838;28;20021;-71
2023/10/04 09:36:57;;;;;;;4.32;1.42;;;;;;;;;;5053388;28;20029;-72
2023/10/04 09:39:24;;;;;;;3.42;1.90;;;;;;;;;;5053571;28;20399;-71
2023/10/04 09:41:50;;;;;;;2.30;1.15;;;;;;;;;;5053679;28;20025;-71
2023/10/04 09:44:29;;;;;;;3.88;1.27;;;;;;;;;;5053478;28;20029;-71
2023/10/04 09:47:01;;;;;;;6.00;1.50;;;;;;;;;;5053450;28;20021;-71
2023/10/04 09:49:31;;;;;;;4.55;1.50;;;;;;;;;;5053557;28;20496;-71
2023/10/04 09:52:00;;;;;;;7.47;1.60;;;;;;;;;;5052193;28;20119;-71
2023/10/04 09:54:30;;;;;;;7.75;1.63;;;;;;;;;;5052802;28;20029;-71
2023/10/04 09:56:56;;;;;;;2.65;1.30;;;;;;;;;;5052043;28;20039;-71
2023/10/04 09:59:23;;;;;;;6.95;1.70;;;;;;;;;;5053127;28;20507;-70
2023/10/04 10:01:54;;;;;;;6.05;1.45;;;;;;;;;;5053062;28;20021;-70
2023/10/04 10:04:27;;;;;;;4.45;1.50;;;;;;;;;;5053109;28;20016;-70
2023/10/04 10:07:06;;;;;;;5.47;1.50;;;;;;;;;;5051880;28;20438;-70
2023/10/04 10:09:34;;;;;;;3.65;1.35;;;;;;;;;;5053301;28;20037;-70
2023/10/04 10:12:00;;;;;;;2.80;1.33;;;;;;;;;;5053143;28;20036;-69
2023/10/04 10:14:26;;;;;;;5.72;1.50;;;;;;;;;;5053132;28;20075;-70
2023/10/04 10:16:54;;;;;;;4.10;1.50;;;;;;;;;;5053378;28;20025;-71
2023/10/04 10:19:27;;;;;;;4.70;1.50;;;;;;;;;;5052994;28;20426;-71
2023/10/04 10:22:11;;;;;;;6.82;1.45;;;;;;;;;;5052795;28;20021;-71
2023/10/04 10:24:44;;;;;;;4.57;1.60;;;;;;;;;;5051712;28;20067;-71
2023/10/04 10:27:11;;;;;;;;;;;;;;;;;;5053354;28;20036;-71
2023/10/04 10:29:36;;;;;;;3.58;1.55;;;;;;;;;;5051655;28;19908;-71
2023/10/04 10:32:06;;;;;;;8.77;1.20;;;;;;;;;;5052669;28;20040;-71
2023/10/04 10:34:31;;;;;;;4.03;1.40;;;;;;;;;;5052552;28;20286;-71
2023/10/04 10:37:18;;;;;;;6.78;2.03;;;;;;;;;;5051403;28;20437;-70
2023/10/04 10:39:51;;;;;;;3.05;1.67;;;;;;;;;;5052840;28;20041;-69
2023/10/04 10:42:17;;;;;;;5.20;1.67;;;;;;;;;;5053094;28;20021;-70
2023/10/04 10:44:44;;;;;;;4.32;1.80;;;;;;;;;;5051694;28;20076;-71
2023/10/04 10:47:14;;;;;;;4.90;1.42;;;;;;;;;;5052600;28;20445;-70
2023/10/04 10:49:41;;;;;;;3.80;1.40;;;;;;;;;;5053881;28;20028;-70
2023/10/04 10:52:39;;;;;;;5.55;1.75;;;;;;;;;;5056856;28;20029;-71
2023/10/04 10:55:06;;;;;;;3.30;1.42;;;;;;;;;;5057279;28;20502;-70
2023/10/04 10:57:36;;;;;;;9.40;1.80;;;;;;;;;;5057783;28;20029;-70
2023/10/04 11:00:19;;;;;;;5.30;1.67;;;;;;;;;;5055571;28;20399;-71
2023/10/04 11:02:48;;;;;;;3.47;1.50;;;;;;;;;;5056826;28;20021;-70
2023/10/04 11:05:16;;;;;;;4.70;1.48;;;;;;;;;;5056398;28;20021;-71
2023/10/04 11:07:44;;;;;;;3.20;1.50;;;;;;;;;;5055547;28;20024;-70
2023/10/04 11:10:12;;;;;;;3.75;1.50;;;;;;;;;;5056592;28;20024;-71
2023/10/04 11:12:38;;;;;;;4.20;1.60;;;;;;;;;;5055932;28;20059;-70
2023/10/04 11:15:06;;;;;;;4.82;1.50;;;;;;;;;;5056274;28;20052;-71
2023/10/04 11:17:33;;;;;;;6.25;1.67;;;;;;;;;;5056228;28;20029;-70
2023/10/04 11:19:58;;;;;;;7.55;1.65;;;;;;;;;;5056185;28;20025;-73
2023/10/04 11:22:24;;;;;;;3.88;1.33;;;;;;;;;;5056797;28;20025;-71
2023/10/04 11:24:50;;;;;;;8.23;1.50;;;;;;;;;;5056391;28;20025;-71
2023/10/04 11:27:22;;;;;;;7.03;1.70;;;;;;;;;;5056369;28;20029;-71
2023/10/04 11:29:52;;;;;;;4.68;1.95;;;;;;;;;;5055036;28;20103;-71
2023/10/04 11:32:17;;;;;;;4.40;1.70;;;;;;;;;;5054978;28;20423;-71
2023/10/04 11:34:44;;;;;;;5.05;1.48;;;;;;;;;;5056005;28;20025;-70
2023/10/04 11:37:09;;;;;;;5.43;1.90;;;;;;;;;;5056286;28;20024;-71
2023/10/04 11:39:36;;;;;;;5.50;1.75;;;;;;;;;;5055834;28;20029;-72
2023/10/04 11:42:17;;;;;;;10.07;1.80;;;;;;;;;;5055772;28;20025;-71
2023/10/04 11:44:43;;;;;;;5.25;1.70;;;;;;;;;;5054706;28;20392;-71
2023/10/04 11:47:09;;;;;;;4.38;2.03;;;;;;;;;;5055593;28;20029;-70
2023/10/04 11:49:36;;;;;;;4.35;1.73;;;;;;;;;;5055536;28;20033;-72
2023/10/04 11:52:07;;;;;;;5.53;2.08;;;;;;;;;;5055497;28;20025;-71
2023/10/04 11:54:46;;;;;;;6.20;1.80;;;;;;;;;;5054339;28;20017;-71
2023/10/04 11:57:12;;;;;;;4.40;1.63;;;;;;;;;;5055872;28;20029;-71
2023/10/04 11:59:39;;;;;;;7.95;1.70;;;;;;;;;;5054347;28;20112;-71
2023/10/04 12:02:05;;;;;;;4.00;1.60;;;;;;;;;;5055529;28;20429;-71
2023/10/04 12:04:32;;;;;;;4.82;1.65;;;;;;;;;;5055616;28;20028;-71
2023/10/04 12:07:04;;;;;;;4.13;1.50;;;;;;;;;;5055361;28;20029;-72
2023/10/04 12:09:33;;;;;;;7.80;1.77;;;;;;;;;;5054087;28;20024;-71
2023/10/04 12:11:59;;;;;;;4.75;1.75;;;;;;;;;;5055183;28;20027;-71
2023/10/04 12:14:26;;;;;;;4.75;1.92;;;;;;;;;;5055073;28;20193;-71
2023/10/04 12:16:52;;;;;;;6.18;2.00;;;;;;;;;;5055516;28;20025;-70
2023/10/04 12:19:17;;;;;;;7.78;1.90;;;;;;;;;;5055116;28;20024;-71
2023/10/04 12:21:43;;;;;;;5.83;1.90;;;;;;;;;;5055002;28;20044;-71
2023/10/04 12:24:09;;;;;;;9.95;1.92;;;;;;;;;;5053764;28;20292;-70
2023/10/04 12:26:35;;;;;;;4.43;1.77;;;;;;;;;;5054996;28;20029;-70
2023/10/04 12:29:01;;;;;;;5.25;1.90;;;;;;;;;;5054907;28;20020;-70
2023/10/04 12:31:27;;;;;;;7.28;1.70;;;;;;;;;;5055117;28;20084;-70
2023/10/04 12:33:55;;;;;;;4.93;1.92;;;;;;;;;;5054878;28;20024;-71
2023/10/04 12:36:21;;;;;;;4.13;1.77;;;;;;;;;;5054842;28;20403;-71
2023/10/04 12:38:47;;;;;;;5.13;1.80;;;;;;;;;;5054909;28;20050;-71
2023/10/04 12:41:14;;;;;;;5.15;2.13;;;;;;;;;;5054391;28;20514;-71
2023/10/04 12:43:40;;;;;;;6.20;2.13;;;;;;;;;;5054645;28;20025;-71
2023/10/04 12:46:05;;;;;;;6.13;1.90;;;;;;;;;;5054700;28;20036;-71
2023/10/04 12:48:31;;;;;;;4.35;2.00;;;;;;;;;;5054600;28;20057;-71
2023/10/04 12:50:57;;;;;;;7.75;2.10;;;;;;;;;;5053143;28;20098;-71
2023/10/04 12:53:22;;;;;;;4.35;1.75;;;;;;;;;;5053164;28;20087;-71
2023/10/04 12:55:48;;;;;;;5.65;2.20;;;;;;;;;;5054561;28;20032;-71
2023/10/04 12:58:13;;;;;;;10.73;1.98;;;;;;;;;;5054671;28;20456;-71
2023/10/04 13:00:41;;;;;;;6.82;2.10;;;;;;;;;;5054540;28;20107;-71
2023/10/04 13:03:07;;;;;;;5.70;2.17;;;;;;;;;;5054344;28;20025;-72
2023/10/04 13:05:37;;;;;;;5.70;1.98;;;;;;;;;;5053135;28;20027;-71
2023/10/04 13:08:03;;;;;;;5.35;2.00;;;;;;;;;;5054174;28;20024;-70
2023/10/04 13:10:29;;;;;;;4.75;2.00;;;;;;;;;;5054253;28;20380;-72
2023/10/04 13:12:54;;;;;;;5.70;1.80;;;;;;;;;;5052265;28;20025;-71
2023/10/04 13:15:19;;;;;;;6.50;2.28;;;;;;;;;;5054057;28;20414;-70
2023/10/04 13:17:44;;;;;;;5.22;2.30;;;;;;;;;;5054038;28;20150;-72
2023/10/04 13:20:24;;;;;;;4.83;1.70;;;;;;;;;;5054167;28;20472;-72
2023/10/04 13:22:50;;;;;;;4.38;2.08;;;;;;;;;;5053924;28;20264;-71
2023/10/04 13:25:15;;;;;;;8.48;2.22;;;;;;;;;;5054218;28;20383;-71
2023/10/04 13:27:40;;;;;;;4.30;1.77;;;;;;;;;;5053948;28;20075;-71
2023/10/04 13:30:06;;;;;;;5.28;2.08;;;;;;;;;;5054004;28;20029;-72
2023/10/04 13:32:31;;;;;;;5.38;1.92;;;;;;;;;;5053730;28;20017;-71
2023/10/04 13:34:57;;;;;;;7.00;1.95;;;;;;;;;;5053690;28;20071;-71
2023/10/04 13:37:23;;;;;;;6.88;2.33;;;;;;;;;;5053923;28;20036;-71
2023/10/04 13:39:48;;;;;;;5.47;2.10;;;;;;;;;;5053889;28;20462;-70
2023/10/04 13:42:15;;;;;;;7.95;2.08;;;;;;;;;;5053942;28;20040;-71
2023/10/04 13:44:41;;;;;;;6.78;2.00;;;;;;;;;;5053570;28;20021;-71
2023/10/04 13:47:08;;;;;;;4.68;2.10;;;;;;;;;;5053466;28;20036;-70
2023/10/04 13:49:33;;;;;;;5.15;2.00;;;;;;;;;;5053434;28;20432;-70
2023/10/04 13:51:58;;;;;;;5.68;2.13;;;;;;;;;;5053362;28;20056;-70
2023/10/04 13:54:25;;;;;;;6.13;2.13;;;;;;;;;;5053328;28;20021;-70
2023/10/04 13:56:53;;;;;;;6.90;2.10;;;;;;;;;;5053505;28;20028;-70
2023/10/04 13:59:18;;;;;;;5.68;2.10;;;;;;;;;;5053298;28;20399;-71
2023/10/04 14:01:43;;;;;;;6.50;2.03;;;;;;;;;;5053375;28;20036;-71
2023/10/04 14:04:11;;;;;;;4.93;1.85;;;;;;;;;;5053280;28;20024;-71
2023/10/04 14:06:36;;;;;;;5.78;2.13;;;;;;;;;;5053114;28;20568;-71
2023/10/04 14:09:10;;;;;;;4.47;1.90;;;;;;;;;;5053284;28;20033;-71
2023/10/04 14:11:36;;;;;;;6.75;1.70;;;;;;;;;;5051935;28;20495;-71
2023/10/04 14:14:07;;;;;;;6.15;2.15;;;;;;;;;;5053372;28;20032;-71
2023/10/04 14:16:32;;;;;;;7.20;2.05;;;;;;;;;;5053070;28;20043;-71
2023/10/04 14:18:58;;;;;;;5.43;1.90;;;;;;;;;;5053071;28;20032;-71
2023/10/04 14:21:24;;;;;;;4.95;2.15;;;;;;;;;;5053703;28;20258;-71
2023/10/04 14:23:50;;;;;;;7.00;1.88;;;;;;;;;;5052381;28;20029;-71
2023/10/04 14:26:15;;;;;;;7.47;2.15;;;;;;;;;;5052925;28;20150;-71
2023/10/04 14:28:41;;;;;;;4.55;1.98;;;;;;;;;;5051757;28;20035;-72
2023/10/04 14:31:06;;;;;;;5.72;2.08;;;;;;;;;;5053148;28;20025;-71
2023/10/04 14:33:31;;;;;;;4.70;2.00;;;;;;;;;;5053607;28;20024;-72
2023/10/04 14:35:59;;;;;;;8.88;2.30;;;;;;;;;;5053579;28;20724;-71
2023/10/04 14:38:24;;;;;;;6.05;2.00;;;;;;;;;;5053637;28;20090;-71
2023/10/04 14:40:49;;;;;;;5.43;1.83;;;;;;;;;;5051649;28;20037;-72
2023/10/04 14:43:15;;;;;;;5.22;2.00;;;;;;;;;;5052865;28;20032;-71
2023/10/04 14:45:40;;;;;;;5.97;2.23;;;;;;;;;;5053116;28;20052;-72
2023/10/04 14:48:06;;;;;;;7.43;2.20;;;;;;;;;;5052799;28;20264;-72
2023/10/04 14:50:33;;;;;;;5.30;2.17;;;;;;;;;;5052729;28;20483;-71